WetterOnline ( https://www.wetteronline.de )

Wetter aktuell Oelixdorf

Aktuelles Wetter: Itzehoe (26m)

6-stündlich | Neueste Meldungen
Ortszeit Temperatur Wetter
Mi, 19.06. 14:00 28.7° C leicht bewölkt
Mi, 19.06. 8:00 18.4° C leicht bewölkt
Mi, 19.06. 2:00 16.4° C leicht bewölkt
Di, 18.06. 20:00 21.7° C wolkig
Di, 18.06. 14:00 27.5° C fast wolkenlos
Di, 18.06. 8:00 19.3° C wolkig
Di, 18.06. 2:00 17.2° C wolkenlos
Mo, 17.06. 20:00 24.0° C wolkenlos
Ortszeit Temperatur Wetter
Mi, 19.06. 14:30 29.9° C fast wolkenlos
Mi, 19.06. 14:20 29.9° C fast wolkenlos
Mi, 19.06. 14:10 29.8° C leicht bewölkt
Mi, 19.06. 14:00 28.7° C leicht bewölkt
Mi, 19.06. 13:50 28.7° C leicht bewölkt
Mi, 19.06. 13:40 28.6° C wolkenlos
Mi, 19.06. 13:30 28.5° C wolkenlos
Mi, 19.06. 13:00 28.6° C wolkenlos
Mi, 19.06. 12:30 27.4° C wolkenlos
Mi, 19.06. 12:00 26.6° C wolkig
Mi, 19.06. 11:30 25.5° C leicht bewölkt
Mi, 19.06. 11:00 25.0° C leicht bewölkt
Ortszeit Relative Feuchte Sichtweite
Mi, 19.06. 14:00 47% 28 km
Mi, 19.06. 8:00 89% 9 km
Mi, 19.06. 2:00 98% 6 km
Di, 18.06. 20:00 80% 26 km
Di, 18.06. 14:00 49% 29 km
Di, 18.06. 8:00 75% 18 km
Di, 18.06. 2:00 79% 40 km
Mo, 17.06. 20:00 49% 30 km
Ortszeit Relative Feuchte Sichtweite
Mi, 19.06. 14:30 39% 14 km
Mi, 19.06. 14:20 39% -
Mi, 19.06. 14:10 42% -
Mi, 19.06. 14:00 47% 28 km
Mi, 19.06. 13:50 47% -
Mi, 19.06. 13:40 45% -
Mi, 19.06. 13:30 52% 18 km
Mi, 19.06. 13:00 52% 14 km
Mi, 19.06. 12:30 57% 14 km
Mi, 19.06. 12:00 61% 13 km
Mi, 19.06. 11:30 63% 16 km
Mi, 19.06. 11:00 65% 30 km
Ortszeit Niederschlagsmenge Niederschlagsart
Mi, 19.06. 14:00 0.1 l/m2 in 6 Std. -
Mi, 19.06. 8:00 0.0 l/m2 in 12 Std. -
Mi, 19.06. 2:00 0.0 l/m2 in 6 Std. -
Di, 18.06. 20:00 6 l/m2 in 12 Std. -
Di, 18.06. 14:00 0.0 l/m2 in 6 Std. -
Di, 18.06. 8:00 0.1 l/m2 in 12 Std. -
Di, 18.06. 2:00 0.0 l/m2 in 6 Std. -
Mo, 17.06. 20:00 0.1 l/m2 in 12 Std. -
Ortszeit Niederschlagsmenge Niederschlagsart
Mi, 19.06. 14:30 0.0 l/m2 in 1 Std. -
Mi, 19.06. 14:20 keine Meldung -
Mi, 19.06. 14:10 keine Meldung -
Mi, 19.06. 14:00 0.0 l/m2 in 1 Std. -
Mi, 19.06. 13:50 keine Meldung -
Mi, 19.06. 13:40 keine Meldung -
Mi, 19.06. 13:30 0.0 l/m2 in 1 Std. -
Mi, 19.06. 13:00 0.0 l/m2 in 1 Std. -
Mi, 19.06. 12:30 0.0 l/m2 in 1 Std. -
Mi, 19.06. 12:00 0.0 l/m2 in 1 Std. -
Mi, 19.06. 11:30 0.0 l/m2 in 1 Std. -
Mi, 19.06. 11:00 0.1 l/m2 in 1 Std. -
Ortszeit Stärke Spitze Richtung
km/h Bft. km/h Grad Sektor
Mi, 19.06. 14:00 11 2 25 200° S
Mi, 19.06. 8:00 11 2 14 70° O
Mi, 19.06. 2:00 2 1 17 50° NO
Di, 18.06. 20:00 7 2 36 60° NO
Di, 18.06. 14:00 11 2 25 170° S
Di, 18.06. 8:00 9 2 20 150° SO
Di, 18.06. 2:00 9 2 20 140° SO
Mo, 17.06. 20:00 7 2 18 140° SO
Ortszeit Stärke Spitze Richtung
km/h Bft. km/h Grad Sektor
Mi, 19.06. 14:30 14 3 29 210° SW
Mi, 19.06. 14:20 14 3 - 210° SW
Mi, 19.06. 14:10 11 2 - 200° S
Mi, 19.06. 14:00 11 2 25 200° S
Mi, 19.06. 13:50 11 2 - 200° S
Mi, 19.06. 13:40 11 2 - 170° S
Mi, 19.06. 13:30 11 2 25 150° SO
Mi, 19.06. 13:00 11 2 22 170° S
Mi, 19.06. 12:30 9 2 22 150° SO
Mi, 19.06. 12:00 11 2 22 130° SO
Mi, 19.06. 11:30 11 2 22 150° SO
Mi, 19.06. 11:00 9 2 19 140° SO
Ortszeit Untergrenze Bedeckung Gattung
total tief tief mittel hoch
Mi, 19.06. 14:00 1800 m 4/8 4/8 - - -
Mi, 19.06. 8:00 2100 m 5/8 2/8 - - -
Mi, 19.06. 2:00 8400 m 4/8 0/8 - - -
Di, 18.06. 20:00 6300 m 8/8 8/8 - - -
Di, 18.06. 14:00 1500 m 1/8 1/8 - - -
Di, 18.06. 8:00 2400 m 7/8 1/8 - - -
Di, 18.06. 2:00 - 0/8 0/8 - - -
Mo, 17.06. 20:00 - 0/8 0/8 - - -
Ortszeit Bedeckungsgrad in Achtel und Wolkenuntergrenze
Mi, 19.06. 14:30 1(1500m)
Mi, 19.06. 14:20 1(1500m)
Mi, 19.06. 14:10 3(1800m)
Mi, 19.06. 14:00 4(1800m)
Mi, 19.06. 13:50 4(1800m)
Mi, 19.06. 13:40 keine Wolken
Mi, 19.06. 13:30 keine Wolken
Mi, 19.06. 13:00 keine Wolken
Mi, 19.06. 12:30 keine Wolken
Mi, 19.06. 12:00 7(5100m)
Mi, 19.06. 11:30 2(5100m)
Mi, 19.06. 11:00 3(2100m)
Ortszeit Luftdruck NN (hPa) Tendenz (hPa in 3 Std.)
Mi, 19.06. 14:00 1007 - 1,2
Mi, 19.06. 8:00 1010 - 0,6
Mi, 19.06. 2:00 1012 - 1,1
Di, 18.06. 20:00 1013 - 0,4
Di, 18.06. 14:00 1015 - 1,1
Di, 18.06. 8:00 1017 - 0,8
Di, 18.06. 2:00 1018 - 0,4
Mo, 17.06. 20:00 1019 - 1,2
Ortszeit Luftdruck NN (hPa) Tendenz (hPa in 3 Std.)
Mi, 19.06. 14:30 1007 - 1,0
Mi, 19.06. 14:20 1007 keine Meldung
Mi, 19.06. 14:10 1007 keine Meldung
Mi, 19.06. 14:00 1007 - 1,2
Mi, 19.06. 13:50 1007 keine Meldung
Mi, 19.06. 13:40 1007 keine Meldung
Mi, 19.06. 13:30 1007 - 1,6
Mi, 19.06. 13:00 1007 - 1,2
Mi, 19.06. 12:30 1008 - 1,4
Mi, 19.06. 12:00 1008 - 1,4
Mi, 19.06. 11:30 1008 - 1,4
Mi, 19.06. 11:00 1008 - 1,3
Ortszeit Schneehöhe (cm)
Mi, 19.06. 14:00 -
Mi, 19.06. 8:00 -
Mi, 19.06. 2:00 -
Di, 18.06. 20:00 -
Di, 18.06. 14:00 -
Di, 18.06. 8:00 -
Di, 18.06. 2:00 -
Mo, 17.06. 20:00 -
Ortszeit Schneehöhe (cm)
Mi, 19.06. 14:30 -
Mi, 19.06. 14:20 -
Mi, 19.06. 14:10 -
Mi, 19.06. 14:00 -
Mi, 19.06. 13:50 -
Mi, 19.06. 13:40 -
Mi, 19.06. 13:30 -
Mi, 19.06. 13:00 -
Mi, 19.06. 12:30 -
Mi, 19.06. 12:00 -
Mi, 19.06. 11:30 -
Mi, 19.06. 11:00 -
Link zu dieser Seite / Seite empfehlen

Das Wetter in ...